Time;durP1;ratioP1;P1;durP2;ratioP2;P2;SDS_P1;SDS_P2;PMS_P1;PMS_P2;Temp;Humidity;BMP_temperature;BMP_pressure;BME280_temperature;BME280_humidity;BME280_pressure;Samples;Min_cycle;Max_cycle;Signal;HPM_P1;HPM_P2
2022/04/04 03:06:17;;;;;;;30.87;27.97;;;-1.00;99.90;;;;;;5384019;23;20764;-70
2022/04/04 03:08:44;;;;;;;30.33;27.17;;;-1.00;99.90;;;;;;5009068;28;20454;-70
2022/04/04 03:11:11;;;;;;;35.07;30.07;;;-1.10;99.90;;;;;;5021898;28;20502;-69
2022/04/04 03:13:38;;;;;;;33.93;28.57;;;-1.10;99.90;;;;;;5018014;28;20465;-70
2022/04/04 03:16:05;;;;;;;29.80;26.80;;;-1.10;99.90;;;;;;5021707;28;20466;-70
2022/04/04 03:18:33;;;;;;;30.23;27.43;;;-1.10;99.90;;;;;;5022983;28;20448;-70
2022/04/04 03:21:01;;;;;;;32.47;28.97;;;-1.10;99.90;;;;;;5023014;28;20447;-70
2022/04/04 03:23:29;;;;;;;30.13;27.17;;;-1.00;99.90;;;;;;5021720;28;20445;-70
2022/04/04 03:25:56;;;;;;;31.23;28.07;;;-1.10;99.90;;;;;;5022640;28;20450;-70
2022/04/04 03:28:23;;;;;;;33.03;29.60;;;-1.10;99.90;;;;;;5023314;28;20445;-70
2022/04/04 03:30:50;;;;;;;29.70;26.67;;;-1.20;99.90;;;;;;5019061;28;20479;-70
2022/04/04 03:33:17;;;;;;;30.10;26.90;;;-1.20;99.90;;;;;;5022436;28;20456;-71
2022/04/04 03:35:44;;;;;;;32.33;28.83;;;-1.10;99.90;;;;;;5023131;28;20451;-69
2022/04/04 03:38:13;;;;;;;30.75;27.67;;;-1.10;99.90;;;;;;5021809;28;20476;-70
2022/04/04 03:40:42;;;;;;;33.70;28.73;;;-1.10;99.90;;;;;;5022398;28;20198;-70
2022/04/04 03:43:09;;;;;;;32.67;29.20;;;-1.10;99.90;;;;;;5023512;28;20925;-70
2022/04/04 03:45:36;;;;;;;31.70;28.40;;;-1.10;99.90;;;;;;5022150;28;20472;-70
2022/04/04 03:48:02;;;;;;;35.83;29.67;;;-1.10;99.90;;;;;;5021480;28;20526;-70
2022/04/04 03:50:30;;;;;;;30.70;25.50;;;-1.10;99.90;;;;;;5023398;28;20438;-70
2022/04/04 03:52:57;;;;;;;30.10;27.10;;;-1.10;99.90;;;;;;5022396;28;20501;-71
2022/04/04 03:55:27;;;;;;;29.23;26.33;;;-1.20;99.90;;;;;;5021556;28;20464;-70
2022/04/04 03:57:55;;;;;;;30.40;27.23;;;-1.20;99.90;;;;;;5019151;28;20439;-70
2022/04/04 04:00:23;;;;;;;28.17;25.23;;;-1.20;99.90;;;;;;5021636;28;20654;-71
2022/04/04 04:02:50;;;;;;;30.13;25.80;;;-1.20;99.90;;;;;;5018455;28;20434;-70
2022/04/04 04:05:17;;;;;;;29.53;25.70;;;-1.20;99.90;;;;;;5006145;28;20483;-69
2022/04/04 04:07:44;;;;;;;31.27;27.50;;;-1.20;99.90;;;;;;5003376;28;20447;-70
2022/04/04 04:10:12;;;;;;;28.13;25.37;;;-1.20;99.90;;;;;;4995840;28;20585;-70
2022/04/04 04:12:39;;;;;;;27.55;24.67;;;-1.10;99.90;;;;;;4993910;28;20488;-70
2022/04/04 04:15:09;;;;;;;27.87;24.80;;;-1.20;99.90;;;;;;4986479;28;20302;-69
2022/04/04 04:17:36;;;;;;;29.40;26.50;;;-1.20;99.90;;;;;;4973676;28;20459;-70
2022/04/04 04:20:23;;;;;;;27.80;25.17;;;-1.20;99.90;;;;;;4973466;28;21258;-70
2022/04/04 04:22:52;;;;;;;27.88;24.95;;;-1.20;99.90;;;;;;4974062;28;20503;-70
2022/04/04 04:25:19;;;;;;;27.80;24.92;;;-1.20;99.90;;;;;;4974184;28;20630;-71
2022/04/04 04:27:46;;;;;;;30.20;26.97;;;-1.30;99.90;;;;;;4982617;28;20205;-70
2022/04/04 04:30:16;;;;;;;27.83;24.90;;;-1.30;99.90;;;;;;5002053;28;20815;-70
2022/04/04 04:32:44;;;;;;;27.37;24.67;;;-1.30;99.90;;;;;;5002605;28;20994;-71
2022/04/04 04:35:12;;;;;;;24.07;21.70;;;-1.40;99.90;;;;;;4998882;28;20494;-71
2022/04/04 04:37:39;;;;;;;27.27;24.33;;;-1.30;99.90;;;;;;5001684;28;20452;-70
2022/04/04 04:40:06;;;;;;;28.07;25.10;;;-1.40;99.90;;;;;;5002685;28;20453;-70
2022/04/04 04:42:33;;;;;;;28.87;25.73;;;-1.40;99.90;;;;;;5001456;28;20470;-70
2022/04/04 04:45:01;;;;;;;28.80;25.90;;;-1.40;99.90;;;;;;5000896;28;20454;-72
2022/04/04 04:47:29;;;;;;;26.67;24.03;;;-1.40;99.90;;;;;;5002923;28;20449;-73
2022/04/04 04:49:56;;;;;;;27.40;24.50;;;-1.40;99.90;;;;;;5001818;28;20865;-69
2022/04/04 04:52:23;;;;;;;28.60;25.57;;;-1.40;99.90;;;;;;5000291;28;20480;-71
2022/04/04 04:54:50;;;;;;;27.20;24.40;;;-1.40;99.90;;;;;;4995125;28;20447;-71
2022/04/04 04:57:16;;;;;;;30.60;27.50;;;-1.40;99.90;;;;;;4992697;28;20459;-71
2022/04/04 04:59:43;;;;;;;26.97;24.13;;;-1.40;99.90;;;;;;4992892;28;20963;-71
2022/04/04 05:02:10;;;;;;;26.03;22.10;;;-1.40;99.90;;;;;;4992998;28;20456;-70
2022/04/04 05:04:38;;;;;;;25.42;22.90;;;-1.40;99.90;;;;;;4993080;28;20480;-70
2022/04/04 05:07:07;;;;;;;27.37;24.40;;;-1.40;99.90;;;;;;4992509;28;20608;-72
2022/04/04 05:09:33;;;;;;;27.40;24.70;;;-1.40;99.90;;;;;;4992479;28;21119;-71
2022/04/04 05:12:00;;;;;;;23.83;21.60;;;-1.30;99.90;;;;;;4992435;28;20488;-72
2022/04/04 05:14:27;;;;;;;22.50;20.17;;;-1.30;99.90;;;;;;4990622;28;21013;-72
2022/04/04 05:16:54;;;;;;;25.33;22.93;;;-1.30;99.90;;;;;;4983289;28;20235;-71
2022/04/04 05:19:22;;;;;;;27.07;24.37;;;-1.30;99.90;;;;;;4973098;28;20460;-71
2022/04/04 05:21:51;;;;;;;24.20;21.70;;;-1.30;99.90;;;;;;4973141;28;20490;-72
2022/04/04 05:24:17;;;;;;;25.10;22.60;;;-1.30;99.90;;;;;;4973203;28;20548;-72
2022/04/04 05:26:44;;;;;;;24.33;20.80;;;-1.30;99.90;;;;;;4973014;28;20459;-72
2022/04/04 05:29:11;;;;;;;21.27;19.27;;;-1.20;99.90;;;;;;4972803;28;20483;-71
2022/04/04 05:31:38;;;;;;;26.57;23.90;;;-1.20;99.90;;;;;;4972932;28;20497;-73
2022/04/04 05:34:05;;;;;;;26.33;23.60;;;-1.20;99.90;;;;;;4972756;28;20452;-72
2022/04/04 05:36:33;;;;;;;25.07;22.60;;;-1.20;99.90;;;;;;4972718;28;20457;-73
2022/04/04 05:39:01;;;;;;;23.37;21.17;;;-1.20;99.90;;;;;;4972836;28;20866;-72
2022/04/04 05:41:28;;;;;;;24.93;22.53;;;-1.10;99.90;;;;;;4972560;28;20454;-72
2022/04/04 05:43:55;;;;;;;25.20;22.63;;;-1.10;99.90;;;;;;4972884;28;20453;-72
2022/04/04 05:46:22;;;;;;;26.73;24.30;;;-1.10;99.90;;;;;;4972685;28;20459;-72
2022/04/04 05:48:49;;;;;;;25.67;22.90;;;-1.10;99.90;;;;;;4972335;28;20449;-71
2022/04/04 05:51:16;;;;;;;24.50;22.03;;;-1.00;99.90;;;;;;4972336;28;20521;-71
2022/04/04 05:53:43;;;;;;;22.83;20.73;;;-0.90;99.90;;;;;;4972218;28;20468;-71
2022/04/04 05:56:11;;;;;;;22.07;19.93;;;-0.70;99.90;;;;;;4972576;28;20987;-71
2022/04/04 05:58:40;;;;;;;20.83;18.93;;;-0.40;99.90;;;;;;4972551;28;20453;-71
2022/04/04 06:01:08;;;;;;;21.13;19.23;;;-0.20;99.90;;;;;;4972273;28;20454;-71
2022/04/04 06:03:34;;;;;;;22.20;20.30;;;0.00;99.90;;;;;;4972130;28;20456;-72
2022/04/04 06:06:02;;;;;;;23.43;20.97;;;0.20;99.90;;;;;;4972134;28;20485;-74
2022/04/04 06:08:29;;;;;;;21.40;19.47;;;0.40;99.90;;;;;;4972306;28;20461;-73
2022/04/04 06:10:57;;;;;;;21.47;19.47;;;0.50;99.90;;;;;;4972587;28;20459;-73
2022/04/04 06:13:25;;;;;;;17.70;16.20;;;0.60;99.90;;;;;;4972306;28;20491;-73
2022/04/04 06:15:52;;;;;;;21.40;19.50;;;0.50;99.90;;;;;;4972251;28;20460;-71
2022/04/04 06:18:19;;;;;;;19.03;17.53;;;0.70;99.90;;;;;;4972022;28;20820;-72
2022/04/04 06:20:46;;;;;;;19.37;17.57;;;0.80;99.90;;;;;;4972037;28;20475;-72
2022/04/04 06:23:12;;;;;;;20.33;18.50;;;0.90;99.90;;;;;;4972267;28;20451;-71
2022/04/04 06:25:41;;;;;;;19.03;17.33;;;1.20;99.90;;;;;;4972062;28;20467;-71
2022/04/04 06:28:08;;;;;;;18.33;16.67;;;1.30;99.90;;;;;;4971872;28;20812;-71
2022/04/04 06:30:36;;;;;;;19.80;18.10;;;1.40;99.90;;;;;;4972102;28;20466;-72
2022/04/04 06:33:05;;;;;;;18.73;16.80;;;1.50;99.90;;;;;;4971711;28;20856;-73
2022/04/04 06:35:32;;;;;;;18.30;16.60;;;1.50;99.90;;;;;;4971681;28;20458;-73
2022/04/04 06:38:00;;;;;;;21.63;19.70;;;1.60;99.90;;;;;;4972072;28;20459;-70
2022/04/04 06:40:27;;;;;;;19.47;17.67;;;1.90;99.90;;;;;;4971578;28;20460;-71
2022/04/04 06:42:55;;;;;;;16.97;15.53;;;2.10;99.90;;;;;;4972148;28;20450;-70
2022/04/04 06:45:22;;;;;;;21.90;19.80;;;2.20;99.90;;;;;;4971763;28;20539;-71
2022/04/04 06:47:51;;;;;;;17.13;15.47;;;2.50;99.90;;;;;;4971768;28;20771;-72
2022/04/04 06:50:18;;;;;;;18.40;16.83;;;2.60;99.90;;;;;;4971605;28;21015;-72
2022/04/04 06:52:45;;;;;;;17.47;15.77;;;2.50;99.90;;;;;;4971606;28;20499;-70
2022/04/04 06:55:12;;;;;;;17.97;16.47;;;2.60;99.90;;;;;;4971875;28;20960;-71
2022/04/04 06:57:38;;;;;;;18.10;16.60;;;2.70;99.90;;;;;;4972067;28;20449;-70
2022/04/04 07:00:08;;;;;;;18.53;16.83;;;2.90;99.90;;;;;;4971527;28;20520;-72
2022/04/04 07:02:37;;;;;;;20.13;18.13;;;3.10;99.90;;;;;;4971585;28;20484;-71
2022/04/04 07:05:05;;;;;;;18.97;17.30;;;3.40;99.90;;;;;;4971400;28;20509;-72
2022/04/04 07:07:32;;;;;;;16.83;15.43;;;3.60;99.90;;;;;;4971498;28;20829;-73
2022/04/04 07:09:59;;;;;;;20.10;18.40;;;3.60;99.90;;;;;;4971575;28;20452;-71
2022/04/04 07:12:27;;;;;;;19.40;17.70;;;3.60;99.90;;;;;;4971371;28;20923;-73
2022/04/04 07:14:54;;;;;;;18.60;16.97;;;3.70;99.90;;;;;;4971846;28;20514;-71
2022/04/04 07:17:21;;;;;;;18.43;16.93;;;3.90;99.90;;;;;;4971558;28;20805;-72
2022/04/04 07:19:48;;;;;;;16.93;15.43;;;4.20;99.90;;;;;;4971595;28;20506;-72
2022/04/04 07:22:16;;;;;;;15.87;14.47;;;4.50;99.90;;;;;;4971309;28;20448;-72
2022/04/04 07:24:43;;;;;;;19.73;17.70;;;4.60;99.90;;;;;;4971398;28;20469;-72
2022/04/04 07:27:10;;;;;;;18.67;16.97;;;4.90;99.90;;;;;;4971508;28;20917;-73
2022/04/04 07:29:37;;;;;;;16.60;15.10;;;5.10;99.90;;;;;;4971406;28;20456;-72
2022/04/04 07:32:05;;;;;;;17.60;16.00;;;5.20;99.90;;;;;;4971157;28;20491;-72
2022/04/04 07:34:31;;;;;;;16.67;15.40;;;5.60;99.90;;;;;;4971254;28;20467;-73
2022/04/04 07:36:58;;;;;;;16.43;15.03;;;5.80;99.90;;;;;;4971238;28;20456;-72
2022/04/04 07:39:26;;;;;;;17.63;16.03;;;6.20;99.50;;;;;;4971455;28;20463;-73
2022/04/04 07:41:53;;;;;;;16.97;15.57;;;6.00;99.90;;;;;;4971516;28;20452;-73
2022/04/04 07:44:20;;;;;;;17.07;15.67;;;6.10;99.10;;;;;;4971162;28;20493;-73
2022/04/04 07:46:47;;;;;;;18.53;16.83;;;6.30;98.90;;;;;;4971081;28;20441;-72
2022/04/04 07:49:14;;;;;;;15.67;14.57;;;6.40;98.00;;;;;;4971388;28;20822;-72
2022/04/04 07:51:40;;;;;;;17.20;15.80;;;6.40;98.00;;;;;;4973478;28;20452;-72
2022/04/04 07:54:07;;;;;;;17.17;15.80;;;6.40;97.90;;;;;;4974873;28;20605;-72
2022/04/04 07:56:35;;;;;;;14.60;13.30;;;6.00;98.10;;;;;;4974511;28;20483;-73
2022/04/04 07:59:02;;;;;;;15.33;13.93;;;5.90;98.20;;;;;;4974358;28;20447;-71
2022/04/04 08:01:28;;;;;;;15.00;13.50;;;6.10;98.10;;;;;;4974460;28;20961;-72
2022/04/04 08:03:55;;;;;;;15.23;14.03;;;6.10;97.20;;;;;;4974474;28;20933;-72
2022/04/04 08:06:22;;;;;;;17.10;15.80;;;6.30;96.60;;;;;;4974120;28;20487;-72
2022/04/04 08:08:48;;;;;;;15.47;14.30;;;6.20;96.60;;;;;;4974462;28;20458;-73
2022/04/04 08:11:15;;;;;;;15.80;14.70;;;6.60;96.60;;;;;;4988856;28;20487;-71
2022/04/04 08:13:45;;;;;;;14.80;13.70;;;7.10;95.00;;;;;;4993581;28;20482;-72
2022/04/04 08:16:12;;;;;;;16.83;15.53;;;7.00;94.30;;;;;;4993442;28;20466;-73
2022/04/04 08:18:39;;;;;;;14.57;13.40;;;7.60;94.60;;;;;;4993738;28;20472;-72
2022/04/04 08:21:06;;;;;;;16.00;14.70;;;7.80;93.10;;;;;;4993824;28;20466;-73
2022/04/04 08:23:33;;;;;;;16.23;14.90;;;8.00;92.70;;;;;;4993598;28;20451;-73
2022/04/04 08:26:00;;;;;;;15.60;14.40;;;8.30;92.10;;;;;;4993648;28;20526;-72
2022/04/04 08:28:28;;;;;;;15.10;13.70;;;8.70;91.00;;;;;;4993418;28;20450;-73
2022/04/04 08:30:56;;;;;;;14.13;13.23;;;9.10;90.20;;;;;;4993507;28;20479;-73
2022/04/04 08:33:24;;;;;;;14.70;13.60;;;9.90;82.60;;;;;;4993455;28;20494;-74
2022/04/04 08:35:52;;;;;;;14.37;13.30;;;10.20;75.90;;;;;;4993315;28;20492;-73
2022/04/04 08:38:20;;;;;;;14.67;13.50;;;10.00;73.90;;;;;;4993344;28;20513;-72
2022/04/04 08:40:49;;;;;;;13.00;12.10;;;9.90;76.20;;;;;;4993212;28;20516;-73
2022/04/04 08:43:17;;;;;;;15.20;14.10;;;10.00;71.10;;;;;;4993224;28;20505;-72
2022/04/04 08:45:44;;;;;;;15.10;13.90;;;10.30;71.10;;;;;;4993161;28;20513;-72
2022/04/04 08:48:14;;;;;;;14.03;12.83;;;10.60;69.30;;;;;;4993455;28;20454;-74
2022/04/04 08:50:42;;;;;;;12.60;11.90;;;11.10;66.80;;;;;;4993098;28;20451;-72
2022/04/04 08:53:09;;;;;;;13.30;12.50;;;11.10;63.20;;;;;;4993313;28;20482;-72
2022/04/04 08:55:36;;;;;;;13.20;12.33;;;11.20;61.00;;;;;;4992899;28;20461;-73
2022/04/04 08:58:03;;;;;;;13.70;13.00;;;10.80;60.10;;;;;;4993131;28;20478;-73
2022/04/04 09:00:30;;;;;;;13.10;12.33;;;10.90;59.90;;;;;;4992751;28;20975;-72
2022/04/04 09:02:58;;;;;;;13.30;12.30;;;10.90;59.50;;;;;;4992656;28;20461;-72
2022/04/04 09:05:29;;;;;;;13.20;12.40;;;10.80;58.90;;;;;;4992336;28;20494;-72
2022/04/04 09:08:01;;;;;;;13.07;12.27;;;10.80;59.40;;;;;;4992960;28;20480;-72
2022/04/04 09:10:35;;;;;;;12.27;11.57;;;11.20;57.90;;;;;;4992646;28;20919;-72
2022/04/04 09:13:17;;;;;;;11.97;11.27;;;11.40;58.20;;;;;;4992553;28;20863;-72
2022/04/04 09:15:51;;;;;;;13.00;12.20;;;11.90;57.20;;;;;;4992823;28;20452;-72
2022/04/04 09:18:19;;;;;;;14.00;13.10;;;12.20;54.50;;;;;;4992638;28;21289;-72
2022/04/04 09:20:51;;;;;;;13.73;12.93;;;12.10;54.30;;;;;;4992317;28;20459;-73
2022/04/04 09:23:18;;;;;;;14.73;13.83;;;12.30;54.20;;;;;;4992230;28;20447;-73
2022/04/04 09:25:45;;;;;;;14.60;13.80;;;12.80;50.60;;;;;;4992285;28;20457;-74
2022/04/04 09:28:16;;;;;;;15.33;14.40;;;12.70;51.00;;;;;;4992521;28;20509;-74
2022/04/04 09:30:43;;;;;;;13.70;12.90;;;12.80;51.90;;;;;;4991899;28;20968;-74
2022/04/04 09:33:14;;;;;;;15.00;14.20;;;12.80;52.20;;;;;;4992313;28;20515;-75
2022/04/04 09:35:47;;;;;;;14.70;13.80;;;13.60;53.10;;;;;;4992352;28;20953;-75
2022/04/04 09:38:16;;;;;;;13.90;13.20;;;13.70;50.40;;;;;;4990193;28;20473;-72
2022/04/04 09:40:43;;;;;;;12.90;12.10;;;12.80;49.90;;;;;;4990894;28;20497;-73
2022/04/04 09:43:10;;;;;;;13.80;12.67;;;11.90;49.70;;;;;;4990959;28;20480;-73
2022/04/04 09:45:38;;;;;;;13.37;12.57;;;11.70;51.00;;;;;;4990804;28;20455;-73
2022/04/04 09:48:07;;;;;;;13.60;12.90;;;12.30;51.00;;;;;;4990703;28;20459;-73
2022/04/04 09:50:37;;;;;;;13.97;13.17;;;12.50;50.10;;;;;;4990632;28;20458;-73
2022/04/04 09:53:05;;;;;;;14.03;13.23;;;13.00;49.70;;;;;;4990356;28;20522;-72
2022/04/04 09:55:35;;;;;;;15.23;14.23;;;13.90;48.30;;;;;;4990404;28;20443;-72
2022/04/04 09:58:05;;;;;;;13.60;12.67;;;13.30;48.50;;;;;;4990643;28;20478;-72
2022/04/04 10:00:32;;;;;;;14.10;13.30;;;14.00;48.40;;;;;;4990429;28;20795;-72
2022/04/04 10:03:01;;;;;;;13.80;13.00;;;12.50;47.80;;;;;;4989989;28;20467;-71
2022/04/04 10:05:29;;;;;;;14.47;13.47;;;12.30;49.30;;;;;;4989415;28;20498;-72
2022/04/04 10:07:57;;;;;;;14.03;13.33;;;12.20;47.70;;;;;;4991859;28;20464;-72
2022/04/04 10:10:27;;;;;;;13.90;13.20;;;11.90;50.10;;;;;;4991799;28;20462;-73
2022/04/04 10:12:56;;;;;;;13.77;13.07;;;13.00;49.00;;;;;;4991597;28;20522;-72
2022/04/04 10:15:24;;;;;;;14.40;13.60;;;12.30;47.80;;;;;;4991316;28;20813;-72
2022/04/04 10:17:53;;;;;;;14.07;13.27;;;12.80;49.40;;;;;;4991324;28;20462;-73
2022/04/04 10:20:21;;;;;;;13.93;13.17;;;12.60;49.80;;;;;;4990992;28;20451;-73
2022/04/04 10:22:50;;;;;;;13.70;12.83;;;13.20;49.80;;;;;;4991163;28;20713;-73
2022/04/04 10:25:21;;;;;;;14.70;13.77;;;13.30;50.30;;;;;;4991245;28;20826;-73
2022/04/04 10:27:49;;;;;;;14.70;13.90;;;13.30;49.20;;;;;;4990039;28;20475;-73
2022/04/04 10:30:17;;;;;;;14.70;13.80;;;13.70;49.50;;;;;;4991557;28;20485;-73
2022/04/04 10:32:51;;;;;;;14.20;13.40;;;14.30;49.00;;;;;;4991335;28;20458;-71
2022/04/04 10:35:21;;;;;;;15.40;14.50;;;14.20;47.90;;;;;;4991348;28;20936;-72
2022/04/04 10:37:48;;;;;;;15.47;14.57;;;12.50;50.10;;;;;;4991398;28;21014;-73
2022/04/04 10:40:23;;;;;;;14.40;13.47;;;12.50;52.50;;;;;;4991440;28;20535;-73
2022/04/04 10:43:17;;;;;;;15.37;14.37;;;13.00;53.10;;;;;;4991655;28;20451;-73
2022/04/04 10:45:56;;;;;;;16.00;15.10;;;14.50;51.40;;;;;;4934509;28;20462;-72
2022/04/04 10:48:31;;;;;;;16.47;15.53;;;15.30;49.60;;;;;;4991461;28;20486;-72
2022/04/04 10:51:10;;;;;;;16.17;15.17;;;14.60;50.00;;;;;;4991474;28;20603;-73
2022/04/04 10:53:44;;;;;;;15.50;14.60;;;13.40;50.80;;;;;;4991245;28;20840;-74
2022/04/04 10:56:17;;;;;;;15.00;14.10;;;12.70;52.40;;;;;;4991455;28;20497;-73
2022/04/04 10:58:44;;;;;;;15.23;14.23;;;13.30;51.80;;;;;;4991351;28;20462;-72
2022/04/04 11:01:16;;;;;;;16.63;15.47;;;14.40;51.50;;;;;;4991482;28;20443;-73
2022/04/04 11:03:57;;;;;;;16.07;14.97;;;14.80;49.20;;;;;;4991172;28;20478;-73
2022/04/04 11:09:26;;;;;;;16.50;15.60;;;14.80;49.60;;;;;;4991443;28;20952;-72
2022/04/04 11:11:55;;;;;;;14.50;13.70;;;15.10;49.20;;;;;;4991238;28;20976;-71
2022/04/04 11:14:43;;;;;;;15.53;14.57;;;15.70;48.30;;;;;;4991276;28;20478;-72
2022/04/04 11:17:38;;;;;;;15.67;14.87;;;15.80;46.20;;;;;;4991215;28;20455;-71
2022/04/04 11:20:31;;;;;;;14.60;13.80;;;15.70;43.80;;;;;;4990998;28;20458;-74
2022/04/04 11:22:59;;;;;;;15.20;14.27;;;14.40;46.10;;;;;;4991164;28;20455;-71
2022/04/04 11:25:29;;;;;;;14.00;13.33;;;13.90;49.40;;;;;;4993021;28;20513;-74
2022/04/04 11:27:57;;;;;;;14.00;12.87;;;14.20;48.30;;;;;;4994923;28;20536;-73
2022/04/04 11:30:25;;;;;;;14.50;13.60;;;15.10;46.60;;;;;;4994907;28;20458;-73
2022/04/04 11:32:57;;;;;;;14.83;14.10;;;15.30;46.10;;;;;;4994637;28;20466;-72
2022/04/04 11:35:27;;;;;;;14.10;13.30;;;15.80;44.80;;;;;;4994903;28;20439;-72
2022/04/04 11:37:56;;;;;;;14.67;13.97;;;16.50;44.10;;;;;;4994924;28;20450;-72
2022/04/04 11:40:26;;;;;;;15.00;14.30;;;15.70;44.80;;;;;;4994758;28;20835;-72
2022/04/04 11:42:53;;;;;;;14.50;13.80;;;15.60;44.60;;;;;;4994547;28;20533;-72
2022/04/04 11:45:23;;;;;;;14.00;13.20;;;14.70;45.50;;;;;;4994449;28;20450;-73
2022/04/04 11:47:53;;;;;;;14.03;13.33;;;14.40;47.50;;;;;;4992356;28;20451;-73
2022/04/04 11:50:23;;;;;;;14.40;13.40;;;14.90;47.70;;;;;;4993666;28;20443;-71
2022/04/04 11:52:52;;;;;;;13.27;12.50;;;15.20;47.20;;;;;;4993668;28;20474;-72
2022/04/04 11:55:20;;;;;;;14.20;13.47;;;14.60;47.00;;;;;;4993671;28;20548;-73
2022/04/04 11:57:49;;;;;;;14.50;13.70;;;14.90;47.10;;;;;;4993607;28;20443;-72
2022/04/04 12:00:21;;;;;;;13.60;12.87;;;14.40;47.80;;;;;;4993673;28;20455;-72
2022/04/04 12:02:48;;;;;;;14.23;13.53;;;14.80;46.60;;;;;;4993362;28;20509;-72
2022/04/04 12:05:17;;;;;;;14.63;13.80;;;15.00;46.70;;;;;;4993203;28;20482;-73
2022/04/04 12:07:44;;;;;;;14.20;13.50;;;14.80;46.60;;;;;;4993364;28;20530;-72
2022/04/04 12:10:16;;;;;;;13.30;12.50;;;15.30;46.10;;;;;;4993595;28;20491;-72
2022/04/04 12:12:43;;;;;;;13.13;12.43;;;14.90;46.30;;;;;;4993573;28;20487;-72
2022/04/04 12:15:10;;;;;;;14.03;13.33;;;15.70;46.70;;;;;;4993517;28;20490;-72
2022/04/04 12:17:38;;;;;;;13.97;13.27;;;16.20;45.60;;;;;;4993305;28;20722;-72
2022/04/04 12:20:10;;;;;;;13.50;12.70;;;16.30;45.70;;;;;;4993102;28;20451;-73
2022/04/04 12:25:23;;;;;;;13.07;12.37;;;14.50;47.60;;;;;;4993247;28;20478;-73
2022/04/04 12:27:57;;;;;;;13.50;12.80;;;15.20;48.20;;;;;;4993105;28;20443;-73
2022/04/04 12:30:32;;;;;;;13.60;12.90;;;15.40;46.20;;;;;;4993150;28;20450;-73
2022/04/04 12:33:10;;;;;;;14.33;13.53;;;14.70;46.40;;;;;;4992839;28;20466;-73
2022/04/04 12:35:41;;;;;;;13.50;12.70;;;14.70;47.70;;;;;;4992826;28;20446;-73
2022/04/04 12:38:10;;;;;;;12.77;12.07;;;14.10;47.00;;;;;;4992320;28;20481;-72
2022/04/04 12:40:38;;;;;;;13.20;12.50;;;13.30;48.90;;;;;;4990838;28;20463;-72
2022/04/04 12:43:07;;;;;;;13.67;12.87;;;13.70;49.40;;;;;;4996184;28;20513;-71
2022/04/04 12:45:34;;;;;;;13.57;12.87;;;13.90;49.10;;;;;;4998899;28;20824;-71
2022/04/04 12:48:07;;;;;;;13.20;12.57;;;13.60;49.40;;;;;;5002118;28;20442;-72
2022/04/04 12:50:38;;;;;;;14.37;13.57;;;13.90;49.50;;;;;;4996732;28;20465;-71
2022/04/04 12:53:07;;;;;;;14.30;13.60;;;14.50;48.90;;;;;;5001400;28;20450;-73
2022/04/04 12:55:36;;;;;;;13.90;13.30;;;15.20;48.60;;;;;;4996767;28;20443;-72
2022/04/04 12:58:20;;;;;;;14.97;13.97;;;14.50;49.10;;;;;;4992581;28;20952;-71
2022/04/04 13:00:48;;;;;;;14.47;13.67;;;14.40;49.30;;;;;;4992948;28;20648;-71
2022/04/04 13:03:19;;;;;;;14.90;14.00;;;13.50;50.30;;;;;;4992655;28;20517;-71
2022/04/04 13:05:47;;;;;;;15.40;14.40;;;13.20;50.90;;;;;;4992295;28;20494;-71
2022/04/04 13:08:18;;;;;;;15.23;14.30;;;13.20;51.50;;;;;;4992691;28;20455;-71
2022/04/04 13:11:04;;;;;;;15.70;14.80;;;13.60;51.20;;;;;;4992629;28;20451;-70
2022/04/04 13:13:32;;;;;;;15.57;14.13;;;13.50;50.40;;;;;;4992586;28;20459;-72
2022/04/04 13:15:58;;;;;;;15.13;14.23;;;13.60;51.50;;;;;;4992677;28;20455;-71
2022/04/04 13:18:25;;;;;;;15.40;14.33;;;13.40;51.00;;;;;;4992527;28;20787;-73
2022/04/04 13:20:52;;;;;;;14.67;13.77;;;12.50;51.70;;;;;;4992565;28;20961;-73
2022/04/04 13:23:20;;;;;;;14.97;13.97;;;12.40;53.00;;;;;;4992416;28;20458;-72
2022/04/04 13:25:50;;;;;;;16.00;14.83;;;13.10;52.10;;;;;;4992015;28;20545;-72
2022/04/04 13:28:17;;;;;;;14.60;13.80;;;13.60;52.00;;;;;;4992584;28;20872;-72
2022/04/04 13:30:44;;;;;;;15.53;14.33;;;13.80;50.60;;;;;;4992448;28;20465;-72
2022/04/04 13:33:10;;;;;;;13.80;13.00;;;13.60;52.00;;;;;;4992384;28;20451;-71
2022/04/04 13:35:37;;;;;;;15.40;14.50;;;14.00;51.80;;;;;;4992369;28;20447;-72
2022/04/04 13:38:04;;;;;;;15.30;14.40;;;14.00;50.80;;;;;;4992393;28;20454;-71
2022/04/04 13:40:31;;;;;;;16.17;14.97;;;14.20;50.90;;;;;;4992373;28;20462;-73
2022/04/04 13:42:59;;;;;;;15.30;14.40;;;14.90;50.10;;;;;;4992503;28;20461;-72
2022/04/04 13:45:26;;;;;;;15.03;14.13;;;15.30;50.00;;;;;;4992502;28;20491;-73
2022/04/04 13:47:53;;;;;;;14.20;13.50;;;15.20;48.60;;;;;;4991851;28;20479;-71
2022/04/04 13:50:19;;;;;;;14.47;13.67;;;14.30;47.90;;;;;;4991854;28;20536;-71
2022/04/04 13:52:46;;;;;;;15.70;14.70;;;13.30;49.70;;;;;;4992233;28;20956;-71
2022/04/04 13:55:13;;;;;;;14.13;13.33;;;12.90;50.90;;;;;;4992192;28;20490;-71
2022/04/04 13:57:40;;;;;;;13.93;13.13;;;12.50;51.00;;;;;;4992234;28;20458;-71
2022/04/04 14:00:11;;;;;;;12.73;12.03;;;12.20;51.50;;;;;;4991948;28;20505;-72
2022/04/04 14:02:40;;;;;;;13.13;12.43;;;12.90;51.80;;;;;;4992016;28;21166;-71
2022/04/04 14:05:11;;;;;;;15.00;14.30;;;13.40;51.30;;;;;;4991609;28;20494;-72
2022/04/04 14:07:38;;;;;;;14.03;13.20;;;14.00;50.10;;;;;;4991937;28;20550;-72
2022/04/04 14:10:05;;;;;;;14.40;13.50;;;14.10;50.40;;;;;;4991944;28;20463;-71
2022/04/04 14:12:35;;;;;;;14.10;13.30;;;13.90;49.60;;;;;;4991666;28;20999;-72
2022/04/04 14:15:02;;;;;;;14.90;14.10;;;14.10;50.20;;;;;;4991124;28;20770;-72
2022/04/04 14:17:30;;;;;;;15.80;14.90;;;14.00;50.40;;;;;;4991260;28;20953;-71
2022/04/04 14:19:58;;;;;;;15.17;14.17;;;13.20;50.40;;;;;;4991288;28;20447;-70
2022/04/04 14:22:25;;;;;;;15.10;14.07;;;12.40;52.20;;;;;;4991348;28;20451;-72
2022/04/04 14:24:54;;;;;;;15.70;14.50;;;11.70;52.60;;;;;;4990624;28;20494;-72
2022/04/04 14:27:21;;;;;;;14.13;13.33;;;11.30;53.20;;;;;;4990974;28;20554;-71
2022/04/04 14:29:49;;;;;;;14.67;13.87;;;11.10;54.00;;;;;;4990780;28;20825;-71
2022/04/04 14:32:16;;;;;;;14.13;13.10;;;11.00;54.70;;;;;;4990871;28;20965;-73
2022/04/04 14:34:44;;;;;;;14.30;13.40;;;11.00;54.90;;;;;;4991013;28;20474;-71
2022/04/04 14:37:11;;;;;;;15.10;14.10;;;11.00;54.70;;;;;;4990974;28;20455;-72
2022/04/04 14:39:38;;;;;;;13.97;13.17;;;11.10;55.50;;;;;;4991127;28;20454;-72
2022/04/04 14:42:06;;;;;;;13.23;12.33;;;11.50;55.40;;;;;;4990869;28;20450;-73
2022/04/04 14:44:32;;;;;;;14.83;14.03;;;11.70;54.90;;;;;;4990935;28;20512;-70
2022/04/04 14:46:59;;;;;;;13.97;13.07;;;11.70;54.10;;;;;;4990827;28;20458;-72
2022/04/04 14:49:26;;;;;;;13.80;13.10;;;11.80;53.70;;;;;;4991010;28;20933;-73
2022/04/04 14:51:54;;;;;;;14.23;13.43;;;11.80;53.20;;;;;;4990587;28;20903;-72
2022/04/04 14:54:20;;;;;;;13.63;12.73;;;12.00;54.10;;;;;;4991082;28;20450;-73
2022/04/04 14:56:48;;;;;;;13.27;12.47;;;11.80;53.50;;;;;;4990872;28;20461;-72
2022/04/04 14:59:16;;;;;;;14.37;13.47;;;11.80;54.00;;;;;;4991109;28;20490;-72
2022/04/04 15:01:43;;;;;;;14.73;13.53;;;11.40;54.50;;;;;;4993328;28;20505;-72
2022/04/04 15:04:10;;;;;;;14.27;13.27;;;11.40;55.80;;;;;;4994991;28;20487;-72
2022/04/04 15:06:37;;;;;;;14.07;13.10;;;11.50;55.80;;;;;;4994853;28;20494;-72
2022/04/04 15:09:05;;;;;;;14.10;13.03;;;11.60;56.00;;;;;;4995214;28;20458;-72
2022/04/04 15:11:32;;;;;;;13.17;12.37;;;11.70;55.60;;;;;;4994985;28;20459;-72
2022/04/04 15:13:59;;;;;;;14.23;13.33;;;11.50;55.70;;;;;;4994930;28;20461;-72
2022/04/04 15:16:26;;;;;;;14.47;13.43;;;11.60;55.80;;;;;;4995085;28;20952;-71
2022/04/04 15:18:53;;;;;;;15.33;14.43;;;11.50;56.40;;;;;;4994774;28;20465;-71
2022/04/04 15:21:19;;;;;;;14.30;13.23;;;11.30;55.50;;;;;;4994733;28;20451;-72
2022/04/04 15:23:46;;;;;;;14.37;13.57;;;11.10;56.00;;;;;;4994852;28;20455;-72
2022/04/04 15:26:15;;;;;;;13.47;12.77;;;11.00;55.70;;;;;;4994624;28;20494;-72
2022/04/04 15:28:41;;;;;;;14.10;13.30;;;10.90;56.10;;;;;;4994727;28;20450;-71
2022/04/04 15:31:08;;;;;;;13.90;13.17;;;10.70;56.30;;;;;;4994658;28;20953;-72
2022/04/04 15:33:36;;;;;;;14.00;13.10;;;10.70;57.60;;;;;;4994476;28;20758;-71
2022/04/04 15:36:02;;;;;;;13.43;12.73;;;10.50;57.20;;;;;;4996707;28;20744;-72
2022/04/04 15:38:29;;;;;;;13.27;12.57;;;10.60;58.00;;;;;;5002744;28;20450;-71
2022/04/04 15:40:56;;;;;;;13.30;12.47;;;10.60;57.70;;;;;;5002240;28;20474;-73
2022/04/04 15:43:24;;;;;;;13.83;12.93;;;10.50;58.30;;;;;;5003802;28;20462;-73
2022/04/04 15:45:50;;;;;;;14.30;13.40;;;10.70;58.90;;;;;;5002671;28;21018;-72